Time;durP1;ratioP1;P1;durP2;ratioP2;P2;SDS_P1;SDS_P2;PMS_P1;PMS_P2;Temp;Humidity;BMP_temperature;BMP_pressure;BME280_temperature;BME280_humidity;BME280_pressure;Samples;Min_cycle;Max_cycle;Signal;HPM_P1;HPM_P2
2022/05/03 00:00:23;;;;;;;4.47;3.50;;;;;;;9.76;70.16;98902.59;5083090;28;20040;-48
2022/05/03 00:03:05;;;;;;;4.10;2.53;;;;;;;9.73;70.70;98904.47;5050152;28;20437;-48
2022/05/03 00:05:35;;;;;;;6.18;3.28;;;;;;;9.67;70.82;98904.75;5048857;28;20041;-49
2022/05/03 00:08:10;;;;;;;6.22;2.92;;;;;;;9.64;71.03;98891.88;5081045;28;20063;-51
2022/05/03 00:11:11;;;;;;;5.57;3.13;;;;;;;9.39;72.15;98860.97;5049400;28;20041;-51
2022/05/03 00:13:43;;;;;;;5.55;3.40;;;;;;;9.53;72.00;98901.88;5052604;28;20468;-50
2022/05/03 00:16:11;;;;;;;4.80;3.22;;;;;;;9.49;72.29;98889.94;5050671;28;20405;-52
2022/05/03 00:18:37;;;;;;;5.25;3.30;;;;;;;9.38;73.51;98879.16;5082563;28;20064;-48
2022/05/03 00:21:02;;;;;;;5.65;3.15;;;;;;;9.41;74.20;98897.22;5051942;28;20079;-49
2022/05/03 00:23:28;;;;;;;4.63;3.20;;;;;;;9.35;74.49;98896.56;5078229;28;20402;-52
2022/05/03 00:25:54;;;;;;;5.63;3.30;;;;;;;9.32;75.18;98896.69;5054486;28;20123;-49
2022/05/03 00:28:20;;;;;;;5.18;3.67;;;;;;;9.30;75.11;98890.72;5052433;28;20068;-49
2022/05/03 00:30:48;;;;;;;4.72;3.50;;;;;;;9.26;75.49;98877.97;5069894;28;20543;-50
2022/05/03 00:33:15;;;;;;;6.65;3.70;;;;;;;9.12;74.77;98862.09;5051991;28;20048;-53
2022/05/03 00:35:41;;;;;;;4.45;2.47;;;;;;;9.12;76.18;98875.91;5052980;28;20037;-49
2022/05/03 00:38:07;;;;;;;7.28;3.58;;;;;;;9.07;76.08;98871.84;5052467;28;20044;-55
2022/05/03 00:40:33;;;;;;;4.05;3.30;;;;;;;9.14;75.84;98884.50;5052439;28;20090;-52
2022/05/03 00:43:12;;;;;;;5.68;3.58;;;;;;;9.02;76.81;98879.81;5052010;28;20048;-50
2022/05/03 00:46:12;;;;;;;5.63;3.20;;;;;;;9.07;77.46;98879.59;5052838;28;20040;-51
2022/05/03 00:48:44;;;;;;;4.32;3.20;;;;;;;9.03;77.35;98873.72;5020475;28;20052;-48
2022/05/03 00:51:16;;;;;;;4.07;3.25;;;;;;;8.99;77.93;98872.16;5053474;28;20079;-49
2022/05/03 00:53:58;;;;;;;3.92;3.08;;;;;;;8.81;78.24;98839.19;5044033;28;20124;-51
2022/05/03 00:56:40;;;;;;;4.95;3.20;;;;;;;8.95;78.47;98864.56;5053644;28;20037;-52
2022/05/03 00:59:10;;;;;;;5.88;3.42;;;;;;;8.91;78.45;98859.50;5045798;28;20056;-52
2022/05/03 01:01:39;;;;;;;;;;;;;;;8.88;79.20;98864.81;5052656;28;20048;-49
2022/05/03 01:04:13;;;;;;;5.22;3.50;;;;;;;8.87;79.29;98862.28;5053740;28;19952;-51
2022/05/03 01:07:13;;;;;;;5.07;3.25;;;;;;;8.83;79.21;98861.56;5037016;28;20053;-52
2022/05/03 01:09:43;;;;;;;5.28;3.75;;;;;;;8.80;79.88;98863.44;5072173;28;20073;-49
2022/05/03 01:12:24;;;;;;;4.18;3.30;;;;;;;8.78;80.14;98867.84;5040839;28;20040;-51
2022/05/03 01:15:04;;;;;;;4.63;3.60;;;;;;;8.76;80.77;98865.31;5053070;28;20097;-51
2022/05/03 01:17:37;;;;;;;5.50;3.40;;;;;;;8.75;81.14;98855.00;5052307;28;20527;-50
2022/05/03 01:20:07;;;;;;;5.03;3.58;;;;;;;8.74;81.66;98854.16;5051495;28;20089;-49
2022/05/03 01:23:01;;;;;;;3.83;3.08;;;;;;;8.71;81.82;98864.66;5044761;28;20049;-49
2022/05/03 01:25:55;;;;;;;5.25;4.28;;;;;;;8.68;82.05;98850.97;5053303;28;20513;-53
2022/05/03 01:28:30;;;;;;;10.15;3.58;;;;;;;8.66;82.71;98847.59;5041093;28;20131;-52
2022/05/03 01:31:03;;;;;;;8.13;3.83;;;;;;;8.63;82.52;98835.63;5053244;28;20048;-52
2022/05/03 01:33:43;;;;;;;4.47;3.10;;;;;;;8.62;83.22;98836.53;5052125;28;20623;-50
2022/05/03 01:36:09;;;;;;;;;;;;;;;8.63;83.43;98842.56;5069173;28;20501;-50
2022/05/03 01:39:12;;;;;;;4.47;3.67;;;;;;;8.62;83.28;98827.91;5052415;28;19922;-50
2022/05/03 01:41:46;;;;;;;6.88;3.55;;;;;;;8.61;83.67;98824.47;5042736;28;20555;-54
2022/05/03 01:44:31;;;;;;;4.82;3.30;;;;;;;8.60;84.38;98816.75;5051462;28;20090;-48
2022/05/03 01:47:06;;;;;;;5.93;4.05;;;;;;;8.59;83.53;98820.22;5036621;28;20044;-53
2022/05/03 01:50:20;;;;;;;5.05;3.63;;;;;;;8.50;83.93;98817.13;5056932;28;20041;-49
2022/05/03 01:53:14;;;;;;;4.63;3.83;;;;;;;8.56;84.68;98820.38;5045675;28;20037;-50
2022/05/03 01:56:22;;;;;;;7.90;4.25;;;;;;;8.56;84.22;98823.81;5051280;28;20037;-54
2022/05/03 01:59:06;;;;;;;5.35;4.10;;;;;;;8.55;84.13;98816.94;5014510;28;20575;-50
2022/05/03 02:01:45;;;;;;;6.38;4.50;;;;;;;8.57;83.84;98815.13;5032909;28;20033;-48
2022/05/03 02:04:50;;;;;;;6.78;4.65;;;;;;;8.59;83.77;98807.28;5052432;28;20043;-52
2022/05/03 02:07:22;;;;;;;6.78;4.40;;;;;;;8.59;83.91;98821.06;5060648;28;20140;-51
2022/05/03 02:10:06;;;;;;;5.93;3.83;;;;;;;8.60;84.46;98817.59;5052547;28;20044;-49
2022/05/03 02:12:33;;;;;;;6.50;3.55;;;;;;;8.61;85.09;98821.03;5049691;28;20040;-49
2022/05/03 02:15:05;;;;;;;6.90;4.25;;;;;;;8.65;84.99;98822.59;5050964;28;20040;-50
2022/05/03 02:17:50;;;;;;;6.63;4.78;;;;;;;8.66;84.55;98825.13;5051681;28;20052;-49
2022/05/03 02:20:31;;;;;;;6.70;3.38;;;;;;;8.67;85.32;98823.38;5052396;28;20532;-49
2022/05/03 02:23:34;;;;;;;6.70;4.75;;;;;;;8.70;85.34;98818.91;5052062;28;20045;-48
2022/05/03 02:26:15;;;;;;;6.75;4.30;;;;;;;8.68;85.16;98822.47;5052043;28;20069;-47
2022/05/03 02:29:06;;;;;;;6.65;4.57;;;;;;;8.70;85.14;98818.91;5051477;28;20037;-50
2022/05/03 02:31:49;;;;;;;5.55;4.18;;;;;;;8.69;86.01;98819.81;5051955;28;20045;-51
2022/05/03 02:34:33;;;;;;;7.80;4.93;;;;;;;8.70;85.90;98816.31;5049634;28;20052;-48
2022/05/03 02:37:06;;;;;;;6.93;4.70;;;;;;;8.71;85.75;98812.81;5049909;28;20101;-49
2022/05/03 02:39:31;;;;;;;5.97;4.15;;;;;;;8.74;85.97;98815.28;5050320;28;20052;-51
2022/05/03 02:41:59;;;;;;;6.75;4.30;;;;;;;8.77;85.85;98804.81;5033308;28;20045;-51
2022/05/03 02:44:28;;;;;;;6.07;4.13;;;;;;;8.81;85.63;98808.09;5033382;28;20048;-48
2022/05/03 02:46:54;;;;;;;12.32;5.55;;;;;;;8.80;85.89;98796.03;5051033;28;20078;-51
2022/05/03 02:49:32;;;;;;;5.95;4.68;;;;;;;8.80;86.19;98801.22;5051736;28;20040;-49
2022/05/03 02:52:09;;;;;;;7.50;5.03;;;;;;;8.80;86.14;98802.06;5036042;28;20040;-52
2022/05/03 02:55:06;;;;;;;5.82;3.95;;;;;;;8.84;86.21;98793.28;5051632;28;20440;-51
2022/05/03 02:57:45;;;;;;;7.00;4.85;;;;;;;8.84;87.21;98802.81;5050644;28;20044;-49
2022/05/03 03:03:23;;;;;;;17.20;5.63;;;;;;;8.88;86.30;98783.63;5031676;28;19963;-50
2022/05/03 03:05:55;;;;;;;7.93;5.10;;;;;;;8.92;86.58;98787.75;5048476;28;20077;-51
2022/05/03 03:08:21;;;;;;;7.68;5.10;;;;;;;8.88;86.39;98765.47;5045393;28;20083;-53
2022/05/03 03:11:07;;;;;;;6.43;4.28;;;;;;;8.98;86.54;98781.47;5066504;28;20460;-50
2022/05/03 03:14:01;;;;;;;5.95;4.55;;;;;;;9.02;86.45;98777.84;5050284;28;20044;-51
2022/05/03 03:16:34;;;;;;;9.85;5.47;;;;;;;8.99;85.93;98757.25;5049433;28;20033;-50
2022/05/03 03:19:37;;;;;;;8.02;5.10;;;;;;;9.17;85.25;98774.59;5051211;28;20045;-52
2022/05/03 03:22:07;;;;;;;7.30;5.35;;;;;;;9.21;85.16;98769.19;5031189;28;20041;-51
2022/05/03 03:24:34;;;;;;;7.55;5.18;;;;;;;9.25;84.95;98778.56;5040331;28;20509;-48
2022/05/03 03:27:02;;;;;;;9.40;5.65;;;;;;;9.15;84.39;98748.75;5050472;28;20058;-51
2022/05/03 03:29:29;;;;;;;8.07;4.50;;;;;;;9.38;84.12;98768.47;5033102;28;20064;-49
2022/05/03 03:31:55;;;;;;;7.05;4.88;;;;;;;9.42;83.74;98772.59;5066534;28;20044;-48
2022/05/03 03:34:23;;;;;;;6.97;5.13;;;;;;;9.43;83.02;98765.66;5050273;28;20135;-48
2022/05/03 03:36:53;;;;;;;7.70;5.60;;;;;;;9.48;83.18;98774.09;5050164;28;20114;-51
2022/05/03 03:39:19;;;;;;;6.38;5.45;;;;;;;9.54;82.88;98773.81;5032999;28;20037;-51
2022/05/03 03:41:47;;;;;;;8.52;5.60;;;;;;;9.61;82.22;98762.28;5048785;28;20055;-51
2022/05/03 03:44:13;;;;;;;7.85;5.68;;;;;;;9.69;81.74;98761.00;5048809;28;20033;-53
2022/05/03 03:46:39;;;;;;;9.23;5.80;;;;;;;9.73;81.18;98764.31;5049588;28;20135;-50
2022/05/03 03:49:05;;;;;;;10.35;5.18;;;;;;;9.66;80.67;98744.75;5055626;28;20128;-49
2022/05/03 03:51:32;;;;;;;10.63;5.82;;;;;;;9.82;80.39;98760.44;5050541;28;20532;-48
2022/05/03 03:53:57;;;;;;;8.27;4.22;;;;;;;9.87;80.00;98766.28;5050623;28;20056;-52
2022/05/03 03:56:24;;;;;;;8.38;5.68;;;;;;;9.92;79.85;98756.50;5049676;28;20041;-52
2022/05/03 03:58:50;;;;;;;8.18;5.35;;;;;;;9.79;79.29;98735.47;5049656;28;20051;-50
2022/05/03 04:01:16;;;;;;;6.90;5.22;;;;;;;10.00;78.75;98760.44;5049350;28;20033;-53
2022/05/03 04:03:42;;;;;;;8.32;5.75;;;;;;;10.02;78.27;98747.38;5032858;28;20479;-51
2022/05/03 04:06:08;;;;;;;7.93;5.22;;;;;;;10.11;77.85;98750.38;5049902;28;20045;-48
2022/05/03 04:08:34;;;;;;;10.75;7.13;;;;;;;10.17;77.51;98750.13;5049579;28;20051;-52
2022/05/03 04:11:15;;;;;;;7.82;5.00;;;;;;;10.17;76.83;98734.53;5050488;28;20429;-51
2022/05/03 04:13:42;;;;;;;7.78;5.30;;;;;;;10.35;76.38;98727.63;5050145;28;20049;-50
2022/05/03 04:16:08;;;;;;;8.13;5.88;;;;;;;10.66;75.01;98739.13;5048810;28;20033;-53
2022/05/03 04:18:44;;;;;;;9.63;5.85;;;;;;;10.86;73.79;98725.94;5049966;28;20041;-46
2022/05/03 04:21:13;;;;;;;8.90;5.90;;;;;;;11.10;72.94;98734.25;5050581;28;20048;-50
2022/05/03 04:23:39;;;;;;;8.32;5.40;;;;;;;11.27;71.38;98740.25;5049919;28;20049;-48
2022/05/03 04:26:05;;;;;;;6.90;4.85;;;;;;;11.29;70.88;98735.84;5050004;28;20436;-49
2022/05/03 04:28:31;;;;;;;10.25;6.10;;;;;;;11.34;70.92;98728.63;5049961;28;20110;-52
2022/05/03 04:30:57;;;;;;;7.97;5.40;;;;;;;11.43;70.14;98727.28;5049997;28;20105;-54
2022/05/03 04:33:22;;;;;;;7.95;5.80;;;;;;;11.55;69.78;98724.03;5050032;28;20540;-53
2022/05/03 04:35:48;;;;;;;10.55;5.32;;;;;;;11.75;68.71;98738.63;5050284;28;20036;-49
2022/05/03 04:38:14;;;;;;;8.70;6.07;;;;;;;11.73;68.35;98727.44;5050028;28;20544;-52
2022/05/03 04:40:39;;;;;;;12.35;6.28;;;;;;;11.75;68.21;98709.97;5050043;28;20076;-51
2022/05/03 04:43:05;;;;;;;9.90;5.90;;;;;;;11.96;67.62;98721.81;5049547;28;20129;-53
2022/05/03 04:45:31;;;;;;;14.07;6.22;;;;;;;12.06;66.85;98719.53;5050352;28;20135;-50
2022/05/03 04:47:56;;;;;;;9.23;6.03;;;;;;;12.13;66.58;98715.69;5049914;28;20485;-50
2022/05/03 04:50:22;;;;;;;13.88;6.28;;;;;;;12.20;66.11;98698.75;5048702;28;20090;-51
2022/05/03 04:52:48;;;;;;;9.07;5.80;;;;;;;12.34;65.24;98717.06;5050002;28;20098;-51
2022/05/03 04:55:14;;;;;;;7.88;5.70;;;;;;;12.42;65.54;98704.44;5049830;28;20513;-48
2022/05/03 04:57:40;;;;;;;8.45;5.45;;;;;;;12.58;64.84;98702.63;5064730;28;20052;-53
2022/05/03 05:00:06;;;;;;;10.15;6.05;;;;;;;12.74;64.18;98697.34;5049875;28;20033;-51
2022/05/03 05:02:32;;;;;;;10.85;5.32;;;;;;;13.12;63.46;98700.31;5049274;28;20041;-49
2022/05/03 05:04:58;;;;;;;8.13;5.25;;;;;;;13.27;61.90;98694.19;5031667;28;20128;-49
2022/05/03 05:07:24;;;;;;;9.23;5.32;;;;;;;13.34;61.06;98687.66;5047643;28;20060;-51
2022/05/03 05:10:34;;;;;;;6.93;5.00;;;;;;;13.39;60.86;98700.41;5035937;28;20041;-49
2022/05/03 05:12:36;;;;;;;8.55;5.20;;;;;;;13.39;60.65;98700.41;5044888;28;20060;-48
2022/05/03 05:15:02;;;;;;;8.55;5.95;;;;;;;13.51;60.68;98700.50;5052979;28;20041;-49
2022/05/03 05:17:29;;;;;;;6.22;4.75;;;;;;;13.50;59.87;98700.59;5053147;28;20036;-53
2022/05/03 05:19:54;;;;;;;11.23;5.55;;;;;;;13.62;60.07;98691.97;5019284;28;20056;-51
2022/05/03 05:22:20;;;;;;;10.40;5.03;;;;;;;13.72;59.11;98687.03;5051564;28;20044;-52
2022/05/03 05:24:46;;;;;;;9.10;5.70;;;;;;;13.73;58.82;98678.25;5052978;28;20040;-50
2022/05/03 05:27:12;;;;;;;7.45;5.43;;;;;;;13.75;58.46;98668.56;5051129;28;20033;-48
2022/05/03 05:29:37;;;;;;;8.40;5.63;;;;;;;13.97;58.25;98677.53;5052737;28;20037;-49
2022/05/03 05:32:04;;;;;;;7.30;4.85;;;;;;;14.15;57.77;98692.97;5053027;28;20423;-49
2022/05/03 05:34:29;;;;;;;9.27;5.70;;;;;;;13.99;57.85;98688.72;5051547;28;20058;-48
2022/05/03 05:36:55;;;;;;;9.35;6.20;;;;;;;14.00;58.04;98674.72;5051717;28;20071;-51
2022/05/03 05:39:20;;;;;;;10.10;5.03;;;;;;;14.31;57.35;98684.03;5052287;28;20040;-47
2022/05/03 05:41:56;;;;;;;8.27;5.25;;;;;;;14.58;56.36;98685.81;5052127;28;20045;-52
2022/05/03 05:44:23;;;;;;;9.55;5.32;;;;;;;14.56;55.71;98659.75;5084469;28;20060;-52
2022/05/03 05:46:48;;;;;;;10.40;5.10;;;;;;;14.59;55.64;98661.31;5052592;28;20566;-50
2022/05/03 05:49:14;;;;;;;11.70;5.30;;;;;;;14.90;55.01;98679.25;5051821;28;20246;-49
2022/05/03 05:51:40;;;;;;;6.53;4.88;;;;;;;15.18;54.30;98676.41;5051442;28;20041;-52
2022/05/03 05:54:06;;;;;;;6.88;4.88;;;;;;;15.25;54.20;98666.34;5052510;28;20044;-54
2022/05/03 05:56:31;;;;;;;8.38;4.75;;;;;;;15.00;53.46;98655.91;5052197;28;20043;-51
2022/05/03 05:58:57;;;;;;;8.90;5.32;;;;;;;14.97;54.16;98662.16;5052500;28;20048;-49
2022/05/03 06:01:35;;;;;;;6.03;4.93;;;;;;;15.25;52.84;98653.25;5051810;28;20037;-49
2022/05/03 06:04:01;;;;;;;7.47;4.22;;;;;;;15.54;51.80;98643.41;5066290;28;20056;-51
2022/05/03 06:06:26;;;;;;;16.27;5.50;;;;;;;15.76;51.87;98663.63;5034117;28;20041;-48
2022/05/03 06:08:52;;;;;;;13.52;5.15;;;;;;;16.14;51.20;98653.00;5052741;28;20129;-48
2022/05/03 06:11:18;;;;;;;9.07;5.20;;;;;;;16.66;50.21;98656.06;5051563;28;20060;-49
2022/05/03 06:13:44;;;;;;;9.30;4.43;;;;;;;16.81;49.25;98649.66;5051348;28;20505;-52
2022/05/03 06:16:10;;;;;;;8.63;5.00;;;;;;;16.65;49.47;98650.94;5052018;28;20103;-49
2022/05/03 06:18:40;;;;;;;9.82;4.75;;;;;;;16.71;48.85;98645.22;5049625;28;20504;-49
2022/05/03 06:21:07;;;;;;;8.02;5.18;;;;;;;16.81;48.06;98619.94;5051968;28;20051;-47
2022/05/03 06:23:34;;;;;;;8.07;4.88;;;;;;;17.26;47.63;98619.03;5052041;28;20420;-47
2022/05/03 06:26:00;;;;;;;9.95;4.45;;;;;;;17.74;45.91;98645.03;5051603;28;20526;-50
2022/05/03 06:28:25;;;;;;;8.90;4.85;;;;;;;17.29;46.42;98620.56;5050486;28;20183;-51
2022/05/03 06:30:51;;;;;;;8.07;4.75;;;;;;;18.00;45.41;98637.66;5050673;28;20037;-50
2022/05/03 06:33:17;;;;;;;6.10;4.90;;;;;;;18.63;43.98;98649.16;5052003;28;20044;-50
2022/05/03 06:35:43;;;;;;;6.28;4.00;;;;;;;18.60;42.93;98642.31;5037744;28;20099;-49
2022/05/03 06:38:09;;;;;;;8.10;4.28;;;;;;;18.68;42.78;98633.78;5051373;28;20060;-50
2022/05/03 06:40:34;;;;;;;6.70;4.50;;;;;;;19.10;42.04;98635.41;5051391;28;20124;-51
2022/05/03 06:43:00;;;;;;;8.20;4.57;;;;;;;19.12;42.06;98630.00;5028638;28;20045;-48
2022/05/03 06:45:26;;;;;;;8.85;4.05;;;;;;;19.65;40.96;98639.38;5051331;28;20098;-49
2022/05/03 06:47:52;;;;;;;7.68;4.65;;;;;;;19.42;40.84;98638.72;5051907;28;20041;-51
2022/05/03 06:50:17;;;;;;;8.75;5.15;;;;;;;18.75;42.07;98633.13;5050842;28;20051;-53
2022/05/03 06:52:43;;;;;;;6.63;5.00;;;;;;;18.86;42.33;98619.91;5051156;28;20036;-50
2022/05/03 06:55:11;;;;;;;9.93;4.70;;;;;;;19.33;41.28;98622.88;5051260;28;20040;-54
2022/05/03 06:57:37;;;;;;;6.47;5.03;;;;;;;19.26;41.85;98627.03;5050795;28;20036;-51
2022/05/03 07:00:05;;;;;;;7.82;4.90;;;;;;;20.09;39.96;98624.03;5049807;28;20504;-48
2022/05/03 07:02:32;;;;;;;7.07;4.70;;;;;;;20.19;39.46;98609.03;5049888;28;20497;-51
2022/05/03 07:05:02;;;;;;;6.35;4.68;;;;;;;20.27;39.05;98607.34;5047609;28;20128;-50
2022/05/03 07:07:30;;;;;;;4.95;4.40;;;;;;;19.75;40.35;98602.47;5040368;28;20132;-49
2022/05/03 07:09:56;;;;;;;6.68;4.93;;;;;;;18.98;41.64;98587.25;5050300;28;20060;-51
2022/05/03 07:12:22;;;;;;;11.23;4.82;;;;;;;18.42;43.05;98591.22;5047107;28;20036;-50
2022/05/03 07:14:48;;;;;;;12.55;5.32;;;;;;;17.53;44.81;98594.16;5050697;28;20044;-49
2022/05/03 07:22:45;;;;;;;7.93;5.30;;;;;;;16.95;46.25;98572.47;5051944;28;20064;-53
2022/05/03 07:22:47;;;;;;;6.85;4.88;;;;;;;16.25;48.24;98590.94;5047813;28;20124;-49
2022/05/03 07:25:16;;;;;;;7.13;4.18;;;;;;;16.10;49.01;98592.94;5045400;28;20041;-49
2022/05/03 07:27:46;;;;;;;7.65;4.57;;;;;;;16.23;49.44;98590.22;5047968;28;20131;-50
2022/05/03 07:30:15;;;;;;;11.82;5.28;;;;;;;17.03;47.56;98593.72;5049718;28;20041;-50
2022/05/03 07:32:41;;;;;;;;;;;;;;;17.25;46.65;98585.00;5051399;28;20059;-48
2022/05/03 07:35:07;;;;;;;8.07;4.40;;;;;;;17.52;46.23;98580.16;5050213;28;19917;-48
2022/05/03 07:37:33;;;;;;;11.88;5.20;;;;;;;17.41;45.93;98571.47;5049195;28;20043;-52
2022/05/03 07:39:59;;;;;;;8.27;4.30;;;;;;;17.15;46.32;98565.66;5050075;28;20049;-49
2022/05/03 07:42:25;;;;;;;8.23;4.70;;;;;;;18.10;44.70;98573.66;5047860;28;20052;-48
2022/05/03 07:44:51;;;;;;;5.57;3.80;;;;;;;20.12;40.52;98569.16;5050230;28;20037;-49
2022/05/03 07:47:16;;;;;;;4.95;3.90;;;;;;;21.12;37.85;98575.63;5046315;28;20041;-49
2022/05/03 07:49:43;;;;;;;4.45;3.85;;;;;;;22.33;35.76;98569.97;5048633;28;20036;-53
2022/05/03 07:52:09;;;;;;;5.90;3.50;;;;;;;23.45;33.44;98568.97;5050780;28;20043;-48
2022/05/03 07:54:35;;;;;;;5.43;3.80;;;;;;;23.71;32.80;98571.53;5049402;28;20040;-52
2022/05/03 07:57:01;;;;;;;8.70;3.83;;;;;;;23.65;32.46;98577.50;5071539;28;20045;-50
2022/05/03 07:59:26;;;;;;;9.02;4.38;;;;;;;23.16;33.13;98556.09;5045103;28;20037;-52
2022/05/03 08:01:54;;;;;;;7.07;4.05;;;;;;;22.11;34.23;98531.56;5047418;28;20041;-53
2022/05/03 08:04:20;;;;;;;4.80;3.93;;;;;;;22.10;34.15;98534.34;5050049;28;20049;-50
2022/05/03 08:06:46;;;;;;;8.73;4.05;;;;;;;22.47;33.49;98548.22;5047555;28;20045;-49
2022/05/03 08:09:12;;;;;;;4.28;3.70;;;;;;;22.74;32.72;98545.44;5015836;28;20060;-53
2022/05/03 08:11:38;;;;;;;7.13;4.13;;;;;;;23.01;32.29;98531.16;5064846;28;20041;-47
2022/05/03 08:14:04;;;;;;;10.18;3.88;;;;;;;21.84;34.22;98534.28;5048564;28;20052;-52
2022/05/03 08:16:33;;;;;;;5.82;3.35;;;;;;;20.99;34.53;98530.19;5049471;28;20582;-57
2022/05/03 08:18:59;;;;;;;5.13;3.20;;;;;;;20.14;35.88;98534.72;5047520;28;20048;-51
2022/05/03 08:21:44;;;;;;;3.60;3.03;;;;;;;21.03;35.15;98531.56;5044124;28;20051;-53
2022/05/03 08:24:10;;;;;;;4.40;3.00;;;;;;;20.11;34.73;98516.53;5064925;28;20033;-51
2022/05/03 08:26:35;;;;;;;7.13;3.20;;;;;;;19.72;35.86;98518.38;5048472;28;20036;-51
2022/05/03 08:29:01;;;;;;;7.07;2.80;;;;;;;19.85;35.48;98514.47;5048323;28;20053;-54
2022/05/03 08:31:27;;;;;;;3.80;3.03;;;;;;;20.51;34.71;98522.47;5047876;28;20043;-50
2022/05/03 08:33:52;;;;;;;4.32;2.65;;;;;;;22.28;31.76;98517.47;5048729;28;20901;-56
2022/05/03 08:36:18;;;;;;;5.30;3.15;;;;;;;23.13;28.54;98500.69;5050129;28;20127;-52
2022/05/03 08:44:13;;;;;;;5.85;2.00;;;;;;;22.11;25.22;98510.38;5037999;28;20047;-60
2022/05/03 08:46:39;;;;;;;4.60;2.15;;;;;;;21.08;26.65;98492.31;5068964;28;20044;-57
2022/05/03 08:49:07;;;;;;;3.28;2.20;;;;;;;20.28;28.98;98505.25;5051037;28;20136;-50
2022/05/03 08:51:32;;;;;;;3.72;2.30;;;;;;;19.61;30.73;98492.97;5068100;28;20120;-53
2022/05/03 08:54:00;;;;;;;6.05;2.35;;;;;;;20.88;29.36;98495.22;5053906;28;20132;-54
2022/05/03 08:56:26;;;;;;;5.40;2.60;;;;;;;20.67;29.88;98488.31;5053751;28;20044;-54
2022/05/03 08:58:52;;;;;;;5.85;2.90;;;;;;;22.34;28.25;98492.19;5071587;28;20566;-50
2022/05/03 09:01:18;;;;;;;3.67;2.10;;;;;;;22.69;26.89;98489.41;5053334;28;20131;-52
2022/05/03 09:03:44;;;;;;;5.55;2.35;;;;;;;22.48;26.59;98485.47;5035452;28;20040;-54
2022/05/03 09:06:10;;;;;;;4.75;2.53;;;;;;;22.03;26.61;98468.00;5067770;28;20037;-50
2022/05/03 09:08:37;;;;;;;8.45;2.45;;;;;;;21.17;27.31;98473.94;5052011;28;20061;-52
2022/05/03 09:11:16;;;;;;;4.18;2.25;;;;;;;20.96;27.76;98466.25;5053422;28;20041;-52
2022/05/03 09:13:43;;;;;;;5.95;2.17;;;;;;;21.91;26.21;98477.13;5052720;28;20041;-52
2022/05/03 09:16:17;;;;;;;5.88;2.40;;;;;;;23.29;24.31;98465.44;5051718;28;20143;-56
2022/05/03 09:18:47;;;;;;;3.28;2.25;;;;;;;23.01;24.90;98477.31;5053209;28;20516;-52
2022/05/03 09:24:13;;;;;;;8.00;2.88;;;;;;;24.04;24.39;98458.22;5051052;28;20087;-54
2022/05/03 09:26:40;;;;;;;7.43;2.90;;;;;;;25.44;22.69;98475.22;5053005;28;20072;-52
2022/05/03 09:29:08;;;;;;;4.20;2.58;;;;;;;25.57;22.43;98480.81;5053003;28;20071;-53
2022/05/03 09:31:46;;;;;;;5.88;2.72;;;;;;;24.35;23.95;98442.44;5051761;28;20044;-54
2022/05/03 09:34:25;;;;;;;4.13;2.15;;;;;;;25.43;22.98;98457.59;5051827;28;20049;-52
2022/05/03 09:36:58;;;;;;;7.28;1.98;;;;;;;25.11;23.29;98448.00;5049848;28;20033;-54
2022/05/03 09:39:48;;;;;;;7.03;2.83;;;;;;;24.07;24.63;98445.44;5045462;28;20043;-50
2022/05/03 09:42:19;;;;;;;8.00;2.95;;;;;;;24.99;23.95;98441.41;5051939;28;20044;-52
2022/05/03 09:44:54;;;;;;;7.15;2.47;;;;;;;26.83;22.08;98444.47;5074152;28;20045;-53
2022/05/03 09:47:25;;;;;;;3.50;2.33;;;;;;;25.96;22.15;98437.25;5059337;28;20076;-53
2022/05/03 09:49:51;;;;;;;5.85;2.30;;;;;;;24.39;24.27;98430.50;5019205;28;20039;-49
2022/05/03 09:52:31;;;;;;;6.45;2.20;;;;;;;23.27;25.55;98424.19;5050982;28;20128;-53
2022/05/03 09:55:03;;;;;;;3.65;2.38;;;;;;;22.78;26.24;98426.69;5051244;28;20410;-50
2022/05/03 09:57:33;;;;;;;2.50;1.73;;;;;;;22.14;26.84;98430.66;5051346;28;20503;-51
2022/05/03 10:00:00;;;;;;;2.65;2.33;;;;;;;23.16;25.66;98433.28;5051789;28;20131;-52
2022/05/03 10:02:27;;;;;;;3.28;2.10;;;;;;;24.24;24.50;98432.16;5057952;28;20040;-50
2022/05/03 10:04:57;;;;;;;5.75;2.30;;;;;;;23.42;25.27;98412.75;5051511;28;20611;-52
2022/05/03 10:07:24;;;;;;;4.25;2.35;;;;;;;22.54;26.19;98403.56;5050382;28;20111;-51
2022/05/03 10:09:50;;;;;;;5.95;2.58;;;;;;;23.86;25.04;98412.47;5050625;28;20136;-48
2022/05/03 10:12:17;;;;;;;2.53;2.33;;;;;;;25.75;23.04;98418.47;5050050;28;20595;-49
2022/05/03 10:14:44;;;;;;;4.18;2.60;;;;;;;26.90;21.63;98416.06;5049302;28;20052;-48
2022/05/03 10:22:45;;;;;;;5.13;2.35;;;;;;;28.28;19.99;98395.19;5049478;28;20040;-48
2022/05/03 10:25:11;;;;;;;5.03;2.00;;;;;;;28.17;19.88;98385.88;5050655;28;20043;-48
2022/05/03 10:27:56;;;;;;;5.40;2.13;;;;;;;26.57;21.43;98396.16;5051625;28;20039;-52
2022/05/03 10:30:23;;;;;;;4.78;1.90;;;;;;;25.51;22.50;98390.16;5050622;28;20043;-51
2022/05/03 10:33:20;;;;;;;3.35;2.05;;;;;;;24.46;23.63;98383.63;5067494;28;20037;-50
2022/05/03 10:35:47;;;;;;;9.05;2.15;;;;;;;25.33;22.38;98379.00;5047358;28;20044;-48
2022/05/03 10:38:13;;;;;;;5.07;2.00;;;;;;;24.03;23.51;98392.84;5030981;28;20037;-51
2022/05/03 10:40:43;;;;;;;2.85;2.05;;;;;;;23.34;24.58;98382.75;5049297;28;20043;-51
2022/05/03 10:43:13;;;;;;;5.13;2.28;;;;;;;24.83;23.23;98374.97;5051134;28;20041;-49
2022/05/03 10:45:58;;;;;;;8.68;2.78;;;;;;;26.84;21.34;98383.97;5051841;28;20051;-49
2022/05/03 10:48:31;;;;;;;2.78;2.35;;;;;;;28.06;20.26;98385.56;5051843;28;20045;-50
2022/05/03 10:51:00;;;;;;;4.57;2.20;;;;;;;26.83;20.32;98375.13;5051383;28;20436;-48
2022/05/03 10:53:33;;;;;;;4.13;1.95;;;;;;;25.84;21.41;98367.63;5050112;28;20093;-48
2022/05/03 10:56:12;;;;;;;4.90;2.42;;;;;;;25.14;21.83;98367.00;5051609;28;20048;-50
2022/05/03 10:58:40;;;;;;;5.30;2.40;;;;;;;24.56;22.46;98368.28;5051534;28;20041;-52
2022/05/03 11:01:20;;;;;;;6.63;1.90;;;;;;;25.11;21.96;98351.41;5051373;28;20162;-53
2022/05/03 11:03:51;;;;;;;5.57;2.30;;;;;;;26.19;20.91;98358.06;5049726;28;20048;-50
2022/05/03 11:06:21;;;;;;;3.20;1.80;;;;;;;27.27;19.46;98361.66;5050764;28;20043;-49
2022/05/03 11:11:39;;;;;;;7.50;2.30;;;;;;;28.12;18.34;98358.91;5050749;28;20488;-50
2022/05/03 11:14:06;;;;;;;15.20;2.60;;;;;;;27.33;19.27;98346.72;5050459;28;20044;-51
2022/05/03 11:16:35;;;;;;;6.45;1.77;;;;;;;25.45;21.10;98351.78;5050059;28;20041;-53
2022/05/03 11:19:27;;;;;;;3.25;2.20;;;;;;;25.85;21.12;98350.63;5050869;28;20102;-51
2022/05/03 11:21:53;;;;;;;6.85;2.20;;;;;;;26.44;20.16;98363.97;5049242;28;20135;-48
2022/05/03 11:24:23;;;;;;;12.60;2.17;;;;;;;24.69;21.41;98335.84;5050799;28;20127;-49
2022/05/03 11:26:52;;;;;;;13.82;2.20;;;;;;;23.49;22.53;98330.72;5051037;28;20080;-51
2022/05/03 11:29:18;;;;;;;2.97;1.80;;;;;;;25.03;21.04;98335.50;5049520;28;20140;-50
2022/05/03 11:31:49;;;;;;;5.15;1.98;;;;;;;25.61;20.06;98345.53;5049985;28;20037;-49
2022/05/03 11:34:17;;;;;;;4.00;1.80;;;;;;;25.61;19.86;98337.53;5049470;28;20056;-51
2022/05/03 11:36:44;;;;;;;2.47;1.50;;;;;;;25.18;20.11;98320.41;5049836;28;20568;-49
2022/05/03 11:39:10;;;;;;;2.35;1.60;;;;;;;24.18;21.32;98334.59;5050797;28;20051;-49
2022/05/03 11:41:37;;;;;;;3.78;2.20;;;;;;;24.24;21.37;98328.56;5050786;28;20045;-49
2022/05/03 11:44:03;;;;;;;3.78;1.85;;;;;;;25.11;20.52;98324.81;5049566;28;20060;-47
2022/05/03 11:46:29;;;;;;;5.22;1.73;;;;;;;25.76;19.70;98333.06;5049681;28;20091;-49
2022/05/03 11:49:01;;;;;;;4.00;1.67;;;;;;;26.38;19.45;98312.22;5050210;28;20048;-58
2022/05/03 11:57:30;;;;;;;6.88;2.20;;;;;;;23.47;22.29;98309.66;5040105;28;20131;-60
2022/05/03 11:59:58;;;;;;;6.05;1.90;;;;;;;25.14;21.05;98311.97;5050202;28;20105;-58
2022/05/03 12:02:31;;;;;;;4.13;2.20;;;;;;;25.98;19.81;98286.06;5050231;28;20036;-57
2022/05/03 12:05:07;;;;;;;5.25;1.80;;;;;;;26.32;19.60;98302.34;5049162;28;20523;-60
2022/05/03 12:07:47;;;;;;;2.88;1.60;;;;;;;25.22;20.41;98305.78;5050226;28;20102;-59
2022/05/03 12:10:37;;;;;;;5.15;1.70;;;;;;;24.65;21.34;98303.47;5050626;28;20037;-57
2022/05/03 12:13:12;;;;;;;2.50;1.85;;;;;;;25.79;20.02;98295.44;5030471;28;20061;-53
2022/05/03 12:15:42;;;;;;;3.67;1.90;;;;;;;25.94;20.04;98295.44;5044455;28;20119;-62
2022/05/03 12:18:09;;;;;;;4.70;2.38;;;;;;;26.14;19.51;98294.69;5053217;28;20037;-43
2022/05/03 12:20:43;;;;;;;7.35;3.45;;;;;;;26.57;19.30;98305.50;5054015;28;20051;-49
2022/05/03 12:23:13;;;;;;;3.67;1.88;;;;;;;26.67;19.24;98299.88;5054236;28;20120;-54